createdAt,value
2018-04-15T00:02:07.401Z,95.10
2018-04-15T00:04:35.661Z,95.50
2018-04-15T00:07:04.676Z,95.40
2018-04-15T00:09:32.976Z,95.40
2018-04-15T00:12:01.236Z,95.30
2018-04-15T00:14:29.527Z,95.40
2018-04-15T00:16:57.801Z,95.40
2018-04-15T00:19:26.060Z,95.30
2018-04-15T00:21:54.365Z,95.40
2018-04-15T00:24:22.644Z,95.30
2018-04-15T00:26:51.021Z,95.30
2018-04-15T00:29:19.275Z,95.30
2018-04-15T00:31:47.532Z,95.20
2018-04-15T00:34:15.793Z,95.20
2018-04-15T00:36:44.817Z,95.30
2018-04-15T00:39:13.113Z,95.30
2018-04-15T00:41:41.364Z,95.30
2018-04-15T00:44:09.624Z,95.30
2018-04-15T00:46:37.878Z,95.30
2018-04-15T00:49:06.884Z,95.30
2018-04-15T00:51:35.139Z,95.30
2018-04-15T00:54:16.096Z,95.30
2018-04-15T00:56:44.461Z,95.50
2018-04-15T00:59:12.724Z,95.50
2018-04-15T01:01:40.985Z,95.60
2018-04-15T01:04:09.275Z,95.70
2018-04-15T01:06:37.535Z,95.70
2018-04-15T01:09:05.841Z,95.90
2018-04-15T01:11:34.103Z,96.00
2018-04-15T01:14:02.347Z,96.10
2018-04-15T01:16:30.604Z,96.20
2018-04-15T01:18:59.624Z,96.50
2018-04-15T01:21:27.919Z,96.50
2018-04-15T01:23:56.193Z,96.60
2018-04-15T01:26:24.467Z,96.70
2018-04-15T01:28:52.712Z,96.70
2018-04-15T01:31:21.749Z,96.40
2018-04-15T01:33:49.999Z,96.40
2018-04-15T01:36:18.300Z,96.20
2018-04-15T01:38:46.578Z,96.10
2018-04-15T01:41:14.943Z,96.20
2018-04-15T01:43:43.191Z,96.20
2018-04-15T01:46:11.442Z,96.30
2018-04-15T01:48:40.459Z,96.00
2018-04-15T01:51:08.707Z,96.10
2018-04-15T01:53:37.725Z,96.00
2018-04-15T01:56:06.086Z,96.00
2018-04-15T01:58:34.323Z,96.10
2018-04-15T02:01:02.564Z,96.00
2018-04-15T02:03:30.860Z,96.20
2018-04-15T02:05:59.103Z,96.50
2018-04-15T02:08:27.365Z,96.50
2018-04-15T02:10:56.376Z,96.30
2018-04-15T02:13:24.635Z,96.30
2018-04-15T02:15:53.656Z,96.50
2018-04-15T02:18:21.948Z,96.50
2018-04-15T02:20:50.196Z,96.30
2018-04-15T02:23:18.471Z,96.20
2018-04-15T02:25:46.781Z,96.00
2018-04-15T02:28:15.032Z,96.30
2018-04-15T02:30:43.324Z,96.70
2018-04-15T02:33:11.609Z,96.70
2018-04-15T02:35:39.852Z,96.60
2018-04-15T02:38:08.113Z,96.90
2018-04-15T02:40:37.133Z,97.10
2018-04-15T02:43:05.384Z,97.10
2018-04-15T02:45:33.637Z,97.30
2018-04-15T02:48:02.661Z,98.20
2018-04-15T02:50:30.908Z,97.90
2018-04-15T02:52:59.962Z,97.80
2018-04-15T02:55:28.205Z,97.80
2018-04-15T02:57:56.511Z,97.60
2018-04-15T03:00:24.803Z,97.70
2018-04-15T03:02:53.166Z,97.50
2018-04-15T03:05:21.429Z,97.40
2018-04-15T03:07:49.693Z,97.30
2018-04-15T03:10:17.938Z,97.30
2018-04-15T03:12:47.081Z,97.10
2018-04-15T03:15:15.328Z,97.10
2018-04-15T03:17:43.576Z,97.10
2018-04-15T03:20:11.830Z,97.20
2018-04-15T03:22:40.185Z,97.00
2018-04-15T03:25:08.442Z,96.90
2018-04-15T03:27:36.729Z,96.90
2018-04-15T03:30:04.980Z,96.90
2018-04-15T03:32:33.233Z,97.00
2018-04-15T03:35:02.257Z,97.10
2018-04-15T03:37:30.507Z,97.10
2018-04-15T03:39:59.546Z,97.00
2018-04-15T03:42:27.816Z,97.00
2018-04-15T03:44:56.076Z,96.90
2018-04-15T03:47:24.315Z,96.80
2018-04-15T03:49:53.360Z,97.10
2018-04-15T03:52:21.608Z,96.80
2018-04-15T03:54:49.867Z,96.60
2018-04-15T03:57:18.886Z,96.70
2018-04-15T03:59:47.140Z,96.70
2018-04-15T04:02:16.186Z,96.60
2018-04-15T04:04:44.440Z,96.70
2018-04-15T04:07:12.732Z,96.70
2018-04-15T04:09:40.983Z,96.70
2018-04-15T04:12:09.229Z,96.60
2018-04-15T04:14:38.278Z,96.70
2018-04-15T04:17:06.524Z,96.70
2018-04-15T04:19:46.588Z,96.80
2018-04-15T04:22:26.792Z,96.70
2018-04-15T04:25:07.019Z,96.80
2018-04-15T04:27:35.272Z,97.20
2018-04-15T04:30:03.582Z,97.20
2018-04-15T04:32:31.820Z,97.10
2018-04-15T04:35:00.082Z,97.10
2018-04-15T04:37:28.379Z,97.20
2018-04-15T04:39:56.642Z,97.30
2018-04-15T04:42:24.941Z,97.20
2018-04-15T04:44:53.216Z,97.30
2018-04-15T04:47:21.488Z,97.20
2018-04-15T04:49:49.759Z,97.10
2018-04-15T04:52:18.076Z,96.90
2018-04-15T04:54:46.321Z,96.70
2018-04-15T04:57:14.584Z,96.50
2018-04-15T04:59:42.861Z,96.50
2018-04-15T05:02:11.133Z,96.40
2018-04-15T05:04:39.435Z,96.30
2018-04-15T05:07:07.788Z,96.40
2018-04-15T05:09:36.035Z,96.40
2018-04-15T05:12:04.293Z,96.30
2018-04-15T05:14:33.345Z,95.90
2018-04-15T05:17:01.597Z,95.90
2018-04-15T05:19:29.849Z,95.80
2018-04-15T05:21:58.875Z,95.80
2018-04-15T05:24:27.142Z,95.80
2018-04-15T05:26:55.436Z,95.70
2018-04-15T05:29:23.682Z,95.60
2018-04-15T05:31:51.980Z,95.60
2018-04-15T05:34:20.232Z,95.70
2018-04-15T05:36:48.484Z,96.10
2018-04-15T05:39:17.508Z,95.80
2018-04-15T05:41:45.774Z,95.70
2018-04-15T05:44:14.096Z,95.50
2018-04-15T05:46:42.361Z,95.40
2018-04-15T05:49:10.632Z,95.20
2018-04-15T05:51:38.887Z,95.10
2018-04-15T05:54:07.141Z,95.00
2018-04-15T05:56:36.275Z,94.50
2018-04-15T05:59:04.527Z,94.50
2018-04-15T06:01:32.776Z,94.20
2018-04-15T06:04:01.799Z,93.30
2018-04-15T06:06:30.076Z,93.30
2018-04-15T06:08:58.367Z,93.00
2018-04-15T06:11:26.629Z,92.50
2018-04-15T06:13:54.900Z,91.80
2018-04-15T06:16:23.155Z,91.10
2018-04-15T06:18:52.193Z,90.70
2018-04-15T06:21:20.473Z,90.70
2018-04-15T06:23:48.747Z,90.00
2018-04-15T06:26:17.025Z,88.00
2018-04-15T06:28:45.318Z,86.10
2018-04-15T06:31:13.664Z,84.90
2018-04-15T06:33:41.948Z,82.90
2018-04-15T06:36:10.205Z,83.20
2018-04-15T06:38:38.503Z,83.60
2018-04-15T06:41:06.756Z,82.10
2018-04-15T06:43:35.045Z,80.40
2018-04-15T06:46:03.319Z,79.20
2018-04-15T06:48:31.580Z,78.80
2018-04-15T06:50:59.844Z,75.60
2018-04-15T06:53:28.107Z,73.10
2018-04-15T06:55:57.948Z,68.20
2018-04-15T06:58:26.213Z,68.20
2018-04-15T07:00:54.473Z,65.60
2018-04-15T07:03:23.504Z,60.50
2018-04-15T07:05:51.755Z,60.50
2018-04-15T07:08:20.009Z,58.80
2018-04-15T07:10:49.050Z,56.20
2018-04-15T07:13:17.328Z,56.20
2018-04-15T07:15:45.576Z,57.00
2018-04-15T07:18:13.882Z,56.40
2018-04-15T07:20:42.158Z,59.60
2018-04-15T07:23:10.427Z,59.90
2018-04-15T07:25:38.698Z,61.00
2018-04-15T07:28:06.959Z,61.80
2018-04-15T07:30:35.288Z,62.90
2018-04-15T07:33:03.550Z,62.90
2018-04-15T07:35:31.943Z,63.00
2018-04-15T07:38:00.196Z,63.90
2018-04-15T07:40:28.557Z,65.40
2018-04-15T07:42:56.840Z,64.90
2018-04-15T07:45:25.088Z,63.60
2018-04-15T07:47:53.353Z,61.50
2018-04-15T07:50:21.621Z,59.50
2018-04-15T07:52:50.648Z,58.50
2018-04-15T07:55:18.917Z,58.50
2018-04-15T07:57:47.195Z,59.90
2018-04-15T08:00:15.469Z,59.20
2018-04-15T08:02:43.725Z,59.70
2018-04-15T08:05:12.007Z,60.20
2018-04-15T08:07:40.363Z,61.30
2018-04-15T08:10:08.588Z,61.40
2018-04-15T08:12:36.824Z,59.80
2018-04-15T08:15:05.094Z,59.40
2018-04-15T08:17:34.125Z,59.70
2018-04-15T08:20:02.436Z,59.70
2018-04-15T08:22:30.667Z,58.60
2018-04-15T08:24:58.925Z,57.30
2018-04-15T08:27:27.174Z,55.80
2018-04-15T08:29:56.195Z,56.90
2018-04-15T08:32:24.443Z,56.90
2018-04-15T08:34:53.492Z,56.50
2018-04-15T08:37:21.741Z,56.50
2018-04-15T08:39:50.004Z,56.10
2018-04-15T08:42:18.252Z,56.30
2018-04-15T08:44:47.281Z,56.20
2018-04-15T08:47:15.586Z,56.10
2018-04-15T08:49:43.841Z,57.00
2018-04-15T08:52:12.097Z,56.60
2018-04-15T08:54:40.356Z,55.90
2018-04-15T08:57:09.376Z,54.40
2018-04-15T08:59:37.668Z,54.40
2018-04-15T09:02:05.920Z,54.40
2018-04-15T09:04:34.187Z,54.60
2018-04-15T09:07:02.509Z,55.40
2018-04-15T09:09:30.756Z,56.50
2018-04-15T09:11:59.023Z,57.70
2018-04-15T09:14:27.284Z,57.70
2018-04-15T09:16:56.347Z,59.10
2018-04-15T09:19:24.599Z,59.10
2018-04-15T09:21:52.880Z,60.20
2018-04-15T09:24:21.487Z,60.60
2018-04-15T09:26:49.825Z,60.30
2018-04-15T09:29:18.337Z,60.60
2018-04-15T09:31:46.593Z,60.00
2018-04-15T09:34:14.900Z,60.70
2018-04-15T09:36:43.232Z,62.10
2018-04-15T09:39:11.499Z,62.30
2018-04-15T09:41:39.830Z,63.00
2018-04-15T09:44:09.146Z,63.00
2018-04-15T09:46:38.192Z,64.30
2018-04-15T09:49:06.502Z,64.30
2018-04-15T09:51:34.751Z,65.10
2018-04-15T09:54:03.090Z,65.90
2018-04-15T09:56:31.540Z,66.70
2018-04-15T09:58:59.780Z,67.90
2018-04-15T10:01:28.142Z,69.00
2018-04-15T10:03:56.409Z,68.90
2018-04-15T10:06:24.671Z,69.20
2018-04-15T10:08:52.937Z,68.90
2018-04-15T10:11:21.190Z,68.40
2018-04-15T10:13:50.200Z,66.80
2018-04-15T10:16:18.463Z,66.80
2018-04-15T10:18:47.480Z,66.90
2018-04-15T10:23:50.414Z,66.70
2018-04-15T10:26:18.667Z,66.70
2018-04-15T10:28:46.931Z,66.50
2018-04-15T10:31:15.222Z,66.90
2018-04-15T10:33:43.473Z,67.00
2018-04-15T10:36:11.735Z,66.00
2018-04-15T10:38:40.791Z,65.00
2018-04-15T10:41:09.017Z,65.00
2018-04-15T10:43:37.276Z,64.80
2018-04-15T10:46:06.366Z,65.70
2018-04-15T10:48:34.577Z,66.40
2018-04-15T10:51:02.864Z,65.10
2018-04-15T10:53:31.139Z,64.80
2018-04-15T10:55:59.429Z,65.20
2018-04-15T10:58:27.695Z,64.70
2018-04-15T11:00:55.936Z,64.90
2018-04-15T11:03:24.188Z,65.10
2018-04-15T11:05:53.236Z,65.20
2018-04-15T11:08:21.492Z,65.20
2018-04-15T11:10:49.793Z,65.70
2018-04-15T11:13:18.064Z,65.80
2018-04-15T11:15:46.327Z,66.30
2018-04-15T11:18:14.603Z,65.70
2018-04-15T11:20:42.852Z,64.00
2018-04-15T11:23:11.118Z,63.90
2018-04-15T11:25:40.132Z,62.10
2018-04-15T11:28:08.424Z,62.10
2018-04-15T11:30:36.688Z,62.00
2018-04-15T11:33:04.933Z,62.20
2018-04-15T11:35:33.956Z,62.00
2018-04-15T11:38:02.240Z,61.90
2018-04-15T11:40:30.495Z,60.90
2018-04-15T11:42:58.792Z,61.20
2018-04-15T11:45:27.076Z,61.60
2018-04-15T11:47:55.411Z,61.00
2018-04-15T11:50:24.431Z,61.90
2018-04-15T11:52:52.689Z,61.80
2018-04-15T11:55:20.935Z,63.50
2018-04-15T11:57:49.273Z,63.00
2018-04-15T12:00:17.537Z,62.70
2018-04-15T12:02:45.799Z,64.30
2018-04-15T12:05:14.077Z,64.30
2018-04-15T12:07:42.333Z,64.50
2018-04-15T12:10:10.622Z,67.10
2018-04-15T12:12:39.603Z,65.80
2018-04-15T12:15:07.919Z,65.80
2018-04-15T12:17:36.172Z,67.40
2018-04-15T12:20:04.433Z,66.60
2018-04-15T12:22:32.745Z,65.50
2018-04-15T12:25:01.014Z,67.60
2018-04-15T12:27:29.290Z,67.90
2018-04-15T12:29:57.570Z,66.20
2018-04-15T12:32:25.835Z,66.20
2018-04-15T12:34:54.084Z,66.90
2018-04-15T12:37:22.400Z,66.90
2018-04-15T12:39:50.668Z,67.30
2018-04-15T12:42:18.942Z,68.90
2018-04-15T12:44:47.194Z,70.00
2018-04-15T12:47:15.512Z,70.10
2018-04-15T12:49:43.772Z,68.40
2018-04-15T12:52:12.044Z,70.50
2018-04-15T12:54:40.325Z,71.00
2018-04-15T12:57:08.601Z,74.50
2018-04-15T12:59:36.902Z,73.90
2018-04-15T13:02:05.261Z,74.40
2018-04-15T13:04:33.528Z,73.70
2018-04-15T13:07:01.805Z,73.60
2018-04-15T13:09:30.073Z,73.30
2018-04-15T13:11:58.324Z,73.00
2018-04-15T13:14:26.580Z,73.70
2018-04-15T13:16:55.637Z,73.60
2018-04-15T13:19:23.855Z,73.50
2018-04-15T13:21:52.873Z,71.20
2018-04-15T13:24:21.174Z,71.10
2018-04-15T13:26:49.440Z,70.10
2018-04-15T13:29:17.704Z,71.40
2018-04-15T13:31:45.984Z,72.50
2018-04-15T13:34:14.244Z,69.40
2018-04-15T13:36:42.496Z,70.70
2018-04-15T13:39:11.515Z,70.70
2018-04-15T13:41:39.826Z,70.70
2018-04-15T13:44:08.077Z,70.10
2018-04-15T13:46:36.368Z,71.20
2018-04-15T13:49:04.636Z,71.60
2018-04-15T13:51:32.884Z,72.50
2018-04-15T13:54:01.175Z,73.20
2018-04-15T13:56:29.411Z,74.90
2018-04-15T13:58:58.445Z,73.60
2018-04-15T14:01:26.700Z,73.60
2018-04-15T14:03:54.962Z,74.30
2018-04-15T14:06:23.985Z,75.30
2018-04-15T14:08:52.239Z,75.30
2018-04-15T14:11:20.548Z,74.60
2018-04-15T14:13:48.812Z,74.70
2018-04-15T14:16:17.110Z,75.40
2018-04-15T14:18:45.380Z,75.50
2018-04-15T14:21:13.630Z,74.60
2018-04-15T14:23:41.891Z,74.00
2018-04-15T14:26:10.209Z,73.30
2018-04-15T14:28:38.464Z,72.70
2018-04-15T14:31:06.716Z,73.60
2018-04-15T14:33:34.984Z,72.20
2018-04-15T14:36:03.998Z,72.10
2018-04-15T14:38:32.283Z,72.00
2018-04-15T14:41:00.539Z,71.40
2018-04-15T14:43:28.850Z,70.30
2018-04-15T14:45:57.096Z,70.90
2018-04-15T14:48:25.353Z,70.20
2018-04-15T14:50:54.382Z,68.10
2018-04-15T14:53:22.641Z,68.00
2018-04-15T14:55:50.936Z,68.10
2018-04-15T14:58:19.188Z,68.20
2018-04-15T15:00:47.448Z,68.80
2018-04-15T15:03:15.764Z,67.90
2018-04-15T15:05:44.039Z,66.80
2018-04-15T15:08:12.288Z,68.00
2018-04-15T15:10:40.561Z,68.70
2018-04-15T15:13:08.866Z,68.80
2018-04-15T15:15:37.119Z,70.30
2018-04-15T15:18:05.418Z,67.80
2018-04-15T15:20:33.690Z,68.50
2018-04-15T15:23:01.945Z,68.40
2018-04-15T15:25:30.244Z,68.40
2018-04-15T15:27:58.503Z,68.60
2018-04-15T15:30:26.792Z,67.70
2018-04-15T15:32:55.043Z,68.20
2018-04-15T15:35:23.345Z,66.60
2018-04-15T15:37:51.606Z,66.50
2018-04-15T15:40:19.885Z,67.10
2018-04-15T15:42:48.142Z,67.20
2018-04-15T15:45:16.415Z,67.30
2018-04-15T15:47:44.676Z,65.60
2018-04-15T15:50:13.695Z,65.00
2018-04-15T15:52:41.951Z,64.90
2018-04-15T15:55:10.985Z,67.20
2018-04-15T15:57:39.249Z,67.20
2018-04-15T16:00:07.554Z,65.90
2018-04-15T16:02:35.751Z,64.50
2018-04-15T16:05:04.795Z,63.90
2018-04-15T16:07:33.104Z,63.90
2018-04-15T16:10:01.444Z,63.70
2018-04-15T16:12:29.701Z,63.20
2018-04-15T16:14:57.980Z,64.40
2018-04-15T16:17:26.241Z,64.50
2018-04-15T16:19:55.263Z,65.10
2018-04-15T16:22:23.513Z,65.00
2018-04-15T16:24:51.767Z,66.10
2018-04-15T16:27:20.801Z,67.30
2018-04-15T16:29:49.093Z,67.30
2018-04-15T16:32:17.339Z,68.00
2018-04-15T16:34:45.605Z,68.70
2018-04-15T16:37:14.607Z,69.10
2018-04-15T16:39:42.909Z,69.10
2018-04-15T16:42:11.155Z,70.40
2018-04-15T16:44:39.417Z,70.20
2018-04-15T16:47:08.428Z,70.50
2018-04-15T16:49:36.698Z,70.50
2018-04-15T16:52:04.946Z,71.10
2018-04-15T16:54:33.277Z,72.00
2018-04-15T16:57:01.545Z,72.10
2018-04-15T16:59:29.809Z,72.10
2018-04-15T17:01:58.062Z,72.40
2018-04-15T17:04:27.083Z,72.90
2018-04-15T17:06:55.367Z,73.00
2018-04-15T17:09:23.625Z,73.00
2018-04-15T17:11:51.919Z,72.90
2018-04-15T17:14:20.168Z,72.60
2018-04-15T17:16:48.430Z,73.50
2018-04-15T17:19:17.499Z,72.80
2018-04-15T17:21:45.749Z,72.70
2018-04-15T17:24:14.008Z,73.20
2018-04-15T17:26:42.270Z,72.80
2018-04-15T17:29:10.559Z,72.80
2018-04-15T17:31:38.822Z,73.40
2018-04-15T17:34:07.117Z,73.10
2018-04-15T17:36:35.394Z,73.80
2018-04-15T17:39:03.651Z,73.60
2018-04-15T17:41:31.914Z,73.50
2018-04-15T17:44:00.174Z,74.20
2018-04-15T17:46:29.309Z,74.60
2018-04-15T17:48:57.555Z,74.50
2018-04-15T17:51:25.818Z,74.90
2018-04-15T17:53:54.834Z,75.40
2018-04-15T17:56:23.091Z,75.40
2018-04-15T17:58:51.429Z,75.70
2018-04-15T18:01:19.681Z,76.20
2018-04-15T18:03:47.961Z,76.70
2018-04-15T18:06:16.235Z,77.00
2018-04-15T18:08:44.490Z,77.90
2018-04-15T18:11:12.755Z,78.90
2018-04-15T18:13:41.014Z,79.30
2018-04-15T18:16:10.058Z,80.40
2018-04-15T18:18:38.332Z,80.40
2018-04-15T18:21:06.717Z,80.30
2018-04-15T18:23:34.957Z,80.50
2018-04-15T18:26:03.233Z,80.40
2018-04-15T18:28:31.527Z,81.00
2018-04-15T18:30:59.788Z,81.50
2018-04-15T18:33:28.042Z,82.20
2018-04-15T18:35:56.339Z,82.60
2018-04-15T18:38:24.574Z,83.10
2018-04-15T18:40:53.664Z,84.40
2018-04-15T18:43:22.754Z,84.70
2018-04-15T18:45:50.995Z,84.70
2018-04-15T18:48:20.017Z,85.50
2018-04-15T18:50:48.281Z,85.50
2018-04-15T18:53:16.538Z,85.60
2018-04-15T18:55:44.802Z,85.60
2018-04-15T18:58:13.068Z,85.80
2018-04-15T19:00:41.328Z,86.10
2018-04-15T19:03:09.586Z,86.30
2018-04-15T19:05:38.616Z,86.20
2018-04-15T19:08:06.861Z,86.20
2018-04-15T19:10:35.122Z,86.30
2018-04-15T19:13:04.618Z,86.60
2018-04-15T19:15:32.857Z,86.60
2018-04-15T19:18:01.116Z,86.80
2018-04-15T19:20:29.380Z,86.60
2018-04-15T19:22:57.644Z,87.00
2018-04-15T19:25:26.655Z,87.60
2018-04-15T19:27:54.919Z,87.50
2018-04-15T19:30:23.201Z,87.60
2018-04-15T19:32:51.465Z,87.60
2018-04-15T19:35:19.721Z,87.80
2018-04-15T19:37:48.756Z,88.10
2018-04-15T19:40:17.018Z,88.10
2018-04-15T19:42:45.277Z,88.10
2018-04-15T19:45:14.326Z,88.90
2018-04-15T19:47:42.632Z,88.90
2018-04-15T19:50:12.380Z,89.40
2018-04-15T19:52:40.655Z,89.30
2018-04-15T19:55:09.228Z,89.50
2018-04-15T19:57:38.245Z,89.50
2018-04-15T20:00:06.502Z,89.50
2018-04-15T20:02:34.781Z,89.40
2018-04-15T20:05:03.028Z,89.20
2018-04-15T20:07:32.105Z,89.20
2018-04-15T20:10:00.364Z,89.20
2018-04-15T20:12:28.610Z,89.10
2018-04-15T20:14:56.869Z,89.00
2018-04-15T20:17:25.129Z,89.30
2018-04-15T20:19:54.148Z,90.00
2018-04-15T20:22:22.414Z,89.40
2018-04-15T20:24:50.672Z,89.20
2018-04-15T20:27:18.920Z,89.40
2018-04-15T20:29:47.185Z,89.60
2018-04-15T20:32:15.440Z,89.20
2018-04-15T20:34:43.700Z,89.60
2018-04-15T20:37:11.962Z,90.00
2018-04-15T20:39:41.788Z,90.00
2018-04-15T20:42:10.067Z,90.00
2018-04-15T20:44:38.329Z,90.10
2018-04-15T20:47:06.625Z,90.00
2018-04-15T20:49:34.876Z,90.10
2018-04-15T20:52:03.180Z,90.20
2018-04-15T20:54:31.452Z,90.10
2018-04-15T20:56:59.723Z,90.10
2018-04-15T20:59:28.043Z,90.20
2018-04-15T21:01:57.076Z,90.50
2018-04-15T21:04:25.368Z,90.50
2018-04-15T21:06:53.628Z,90.90
2018-04-15T21:09:21.885Z,90.60
2018-04-15T21:11:50.155Z,90.50
2018-04-15T21:14:19.178Z,90.50
2018-04-15T21:16:47.436Z,90.50
2018-04-15T21:19:15.688Z,90.60
2018-04-15T21:21:44.734Z,90.60
2018-04-15T21:24:12.985Z,90.60
2018-04-15T21:26:41.237Z,90.60
2018-04-15T21:29:10.290Z,90.80
2018-04-15T21:31:38.561Z,90.80
2018-04-15T21:34:06.834Z,90.80
2018-04-15T21:36:35.113Z,90.80
2018-04-15T21:39:03.489Z,90.90
2018-04-15T21:41:31.743Z,90.90
2018-04-15T21:44:00.028Z,90.90
2018-04-15T21:46:28.263Z,90.90
2018-04-15T21:48:57.351Z,91.10
2018-04-15T21:51:25.581Z,91.10
2018-04-15T21:53:53.844Z,91.00
2018-04-15T21:56:22.096Z,91.10
2018-04-15T21:58:50.418Z,91.00
2018-04-15T22:01:18.668Z,91.10
2018-04-15T22:03:46.933Z,91.10
2018-04-15T22:06:15.192Z,91.10
2018-04-15T22:08:44.329Z,91.30
2018-04-15T22:11:12.589Z,91.30
2018-04-15T22:13:40.846Z,91.20
2018-04-15T22:16:09.143Z,91.20
2018-04-15T22:18:37.396Z,91.10
2018-04-15T22:21:05.701Z,91.10
2018-04-15T22:23:33.955Z,91.10
2018-04-15T22:26:02.229Z,91.10
2018-04-15T22:28:30.491Z,91.10
2018-04-15T22:30:59.558Z,91.20
2018-04-15T22:33:27.804Z,91.20
2018-04-15T22:35:56.073Z,91.20
2018-04-15T22:38:24.337Z,91.40
2018-04-15T22:40:52.626Z,91.40
2018-04-15T22:43:20.899Z,91.40
2018-04-15T22:45:49.161Z,91.40
2018-04-15T22:48:17.423Z,91.40
2018-04-15T22:50:45.684Z,91.40
2018-04-15T22:53:14.699Z,91.50
2018-04-15T22:55:42.960Z,91.50
2018-04-15T22:58:11.216Z,91.50
2018-04-15T23:00:40.379Z,91.60
2018-04-15T23:03:08.637Z,91.60
2018-04-15T23:05:36.891Z,91.60
2018-04-15T23:08:05.203Z,91.60
2018-04-15T23:10:33.455Z,91.60
2018-04-15T23:13:01.718Z,91.50
2018-04-15T23:15:29.975Z,91.50
2018-04-15T23:17:59.019Z,91.50
2018-04-15T23:20:27.273Z,91.50
2018-04-15T23:22:55.583Z,91.50
2018-04-15T23:25:23.917Z,91.60
2018-04-15T23:27:53.071Z,91.50
2018-04-15T23:30:21.316Z,91.20
2018-04-15T23:32:49.618Z,91.50
2018-04-15T23:35:19.372Z,91.60
2018-04-15T23:37:47.675Z,91.60
2018-04-15T23:40:15.937Z,91.80
2018-04-15T23:42:44.196Z,91.90
2018-04-15T23:45:12.455Z,91.90
2018-04-15T23:47:41.507Z,92.00
2018-04-15T23:50:09.769Z,92.00
2018-04-15T23:52:38.029Z,91.90
2018-04-15T23:55:06.324Z,92.00
2018-04-15T23:57:34.591Z,92.00
